Time;durP1;ratioP1;P1;durP2;ratioP2;P2;SDS_P1;SDS_P2;PMS_P1;PMS_P2;Temp;Humidity;BMP_temperature;BMP_pressure;BME280_temperature;BME280_humidity;BME280_pressure;Samples;Min_cycle;Max_cycle;Signal;HPM_P1;HPM_P2
2022/04/27 00:01:48;;;;;;;3.03;2.83;;;;;;;4.64;73.39;102331.88;10573955;28;20421;-73
2022/04/27 00:06:50;;;;;;;0.00;0.00;;;;;;;4.84;72.14;102330.72;10576814;28;20130;-73
2022/04/27 00:11:51;;;;;;;0.00;0.00;;;;;;;4.82;71.69;102324.66;10581419;28;20051;-73
2022/04/27 00:16:53;;;;;;;0.00;0.00;;;;;;;4.79;71.72;102331.19;10581838;28;20044;-74
2022/04/27 00:21:54;;;;;;;0.00;0.00;;;;;;;4.49;73.90;102326.50;10576335;28;20529;-73
2022/04/27 00:26:56;;;;;;;0.00;0.00;;;;;;;3.99;75.17;102324.50;10581127;28;20086;-73
2022/04/27 00:31:58;;;;;;;0.00;0.00;;;;;;;4.10;74.75;102326.22;10581833;28;20056;-73
2022/04/27 00:37:00;;;;;;;0.00;0.00;;;;;;;4.40;74.08;102334.38;10581104;28;20478;-74
2022/04/27 00:42:24;;;;;;;0.00;0.00;;;;;;;4.33;73.21;102337.25;10564530;28;20536;-73
2022/04/27 00:47:28;;;;;;;0.00;0.00;;;;;;;4.13;73.41;102331.53;10580419;28;20484;-74
2022/04/27 00:52:30;;;;;;;0.00;0.00;;;;;;;3.64;76.81;102338.91;10581823;28;20074;-73
2022/04/27 00:57:33;;;;;;;0.00;0.00;;;;;;;4.04;73.53;102333.41;10580064;28;20387;-74
2022/04/27 01:02:35;;;;;;;0.00;0.00;;;;;;;3.37;77.91;102336.75;10561655;28;20134;-74
2022/04/27 01:07:38;;;;;;;0.00;0.00;;;;;;;3.77;78.19;102340.72;10544988;28;20039;-74
2022/04/27 01:12:41;;;;;;;0.00;0.00;;;;;;;3.74;75.46;102344.69;10578630;28;20274;-73
2022/04/27 01:17:47;;;;;;;0.00;0.00;;;;;;;3.23;77.21;102346.75;10578073;28;20047;-74
2022/04/27 01:22:49;;;;;;;0.10;0.10;;;;;;;2.87;79.61;102360.00;10573840;28;20126;-79
2022/04/27 01:27:51;;;;;;;0.00;0.00;;;;;;;2.98;78.55;102366.81;10577518;28;20509;-78
2022/04/27 01:32:52;;;;;;;0.00;0.00;;;;;;;2.90;79.12;102367.88;10577004;28;20498;-78
2022/04/27 01:38:00;;;;;;;0.00;0.00;;;;;;;3.30;76.54;102365.97;10576868;28;20570;-79
2022/04/27 01:43:01;;;;;;;0.00;0.00;;;;;;;3.58;75.31;102363.03;10577224;28;20096;-78
2022/04/27 01:48:03;;;;;;;0.00;0.00;;;;;;;3.63;73.76;102367.72;10559500;28;20418;-79
2022/04/27 01:58:26;;;;;;;0.00;0.00;;;;;;;3.36;75.44;102376.63;10575349;28;20513;-79
2022/04/27 02:03:29;;;;;;;0.00;0.00;;;;;;;3.45;75.38;102377.38;10558653;28;20052;-78
2022/04/27 02:08:31;;;;;;;0.00;0.00;;;;;;;3.52;75.67;102390.59;10576821;28;20060;-78
2022/04/27 02:13:34;;;;;;;0.03;0.03;;;;;;;3.38;77.06;102390.38;10575493;28;20051;-78
2022/04/27 02:18:37;;;;;;;0.00;0.00;;;;;;;2.79;77.46;102390.78;10574648;28;20044;-78
2022/04/27 02:23:40;;;;;;;0.00;0.00;;;;;;;2.69;79.16;102396.78;10559094;28;20410;-79
2022/04/27 02:28:42;;;;;;;0.00;0.00;;;;;;;2.52;79.43;102400.50;10576035;28;20085;-78
2022/04/27 02:33:44;;;;;;;0.55;0.55;;;;;;;2.27;79.77;102399.22;10574561;28;20081;-74
2022/04/27 02:38:47;;;;;;;0.00;0.00;;;;;;;2.55;79.97;102394.75;10575040;28;20046;-73
2022/04/27 02:43:50;;;;;;;0.00;0.00;;;;;;;2.50;79.62;102404.53;10574361;28;20347;-73
2022/04/27 02:54:16;;;;;;;0.00;0.00;;;;;;;2.94;76.51;102408.09;10575531;28;20414;-74
2022/04/27 02:59:17;;;;;;;0.00;0.00;;;;;;;2.77;76.19;102412.69;10571048;28;20101;-74
2022/04/27 03:04:24;;;;;;;0.00;0.00;;;;;;;2.76;77.18;102408.38;10574279;28;20429;-73
2022/04/27 03:09:26;;;;;;;3.85;2.65;;;;;;;2.48;78.14;102418.81;10544348;28;20101;-74
2022/04/27 03:14:31;;;;;;;0.00;0.00;;;;;;;2.41;78.26;102416.53;10556905;28;20047;-74
2022/04/27 03:19:33;;;;;;;0.38;0.38;;;;;;;1.89;79.13;102433.34;10566946;28;20397;-73
2022/04/27 03:24:35;;;;;;;0.00;0.00;;;;;;;2.06;79.37;102422.06;10563407;28;20046;-73
2022/04/27 03:29:44;;;;;;;0.00;0.00;;;;;;;2.39;78.87;102428.22;10563192;28;20073;-73
2022/04/27 03:34:47;;;;;;;0.00;0.00;;;;;;;2.30;78.21;102422.34;10556494;28;20050;-73
2022/04/27 03:39:49;;;;;;;0.00;0.00;;;;;;;2.48;77.51;102433.19;10574085;28;20051;-74
2022/04/27 03:44:55;;;;;;;0.00;0.00;;;;;;;2.29;77.82;102440.91;10581116;28;20072;-73
2022/04/27 03:50:04;;;;;;;0.00;0.00;;;;;;;2.10;77.05;102441.91;10573479;28;20077;-74
2022/04/27 03:55:13;;;;;;;0.00;0.00;;;;;;;2.28;76.67;102444.22;10580953;28;20453;-74
2022/04/27 04:00:17;;;;;;;0.00;0.00;;;;;;;2.24;75.86;102439.66;10574502;28;20494;-73
2022/04/27 04:05:23;;;;;;;0.00;0.00;;;;;;;1.70;80.16;102453.72;10572370;28;20044;-73
2022/04/27 04:10:26;;;;;;;0.00;0.00;;;;;;;1.72;80.25;102453.09;10574808;28;20096;-73
2022/04/27 04:15:27;;;;;;;0.00;0.00;;;;;;;1.70;81.71;102449.56;10580146;28;20063;-73
2022/04/27 04:20:47;;;;;;;0.00;0.00;;;;;;;2.50;77.00;102455.44;10581621;28;20055;-74
2022/04/27 04:31:33;;;;;;;0.00;0.00;;;;;;;2.46;77.42;102466.13;10579325;28;20047;-73
2022/04/27 04:36:48;;;;;;;0.00;0.00;;;;;;;2.45;75.77;102474.53;10579362;28;20262;-73
2022/04/27 04:41:50;;;;;;;0.00;0.00;;;;;;;2.43;76.79;102478.56;10562219;28;20128;-73
2022/04/27 04:46:52;;;;;;;0.00;0.00;;;;;;;2.57;76.85;102478.88;10581960;27;20052;-74
2022/04/27 04:52:07;;;;;;;0.00;0.00;;;;;;;2.75;74.93;102485.47;10588726;27;20559;-74
2022/04/27 04:57:41;;;;;;;0.00;0.00;;;;;;;2.93;76.05;102491.19;10568314;28;20059;-73
2022/04/27 05:03:19;;;;;;;0.00;0.00;;;;;;;2.78;74.27;102495.94;10570515;28;20052;-74
2022/04/27 05:08:39;;;;;;;0.00;0.00;;;;;;;3.31;74.82;102496.00;10581148;28;20052;-74
2022/04/27 05:13:51;;;;;;;0.00;0.00;;;;;;;3.39;74.84;102506.78;10577752;28;20117;-73
2022/04/27 05:19:09;;;;;;;0.00;0.00;;;;;;;3.06;79.90;102510.03;10572084;28;20046;-73
2022/04/27 05:24:29;;;;;;;0.00;0.00;;;;;;;3.20;80.49;102517.19;10559455;28;20134;-73
2022/04/27 05:35:18;;;;;;;0.00;0.00;;;;;;;3.53;81.26;102532.53;10577093;28;20085;-74
2022/04/27 05:40:43;;;;;;;0.00;0.00;;;;;;;4.68;77.95;102533.00;10577280;28;20056;-73
2022/04/27 05:45:56;;;;;;;0.00;0.00;;;;;;;5.16;76.91;102539.13;10559544;28;20048;-73
2022/04/27 05:51:07;;;;;;;0.00;0.00;;;;;;;5.47;76.36;102536.25;10578310;28;20488;-73
2022/04/27 05:56:27;;;;;;;0.00;0.00;;;;;;;5.28;78.06;102539.13;10576629;28;20410;-73
2022/04/27 06:01:56;;;;;;;0.00;0.00;;;;;;;5.67;78.59;102544.47;10562225;28;20051;-73
2022/04/27 06:06:59;;;;;;;0.00;0.00;;;;;;;6.08;76.25;102540.56;10543536;28;20082;-73
2022/04/27 06:12:01;;;;;;;0.00;0.00;;;;;;;6.57;75.28;102549.13;10575807;28;20181;-73
2022/04/27 06:17:05;;;;;;;0.00;0.00;;;;;;;6.98;74.14;102547.59;10577190;28;20055;-73
2022/04/27 06:22:07;;;;;;;0.00;0.00;;;;;;;7.28;73.31;102550.44;10569185;28;20511;-74
2022/04/27 06:27:11;;;;;;;0.00;0.00;;;;;;;7.71;69.98;102554.88;10559086;28;20582;-73
2022/04/27 06:32:13;;;;;;;0.00;0.00;;;;;;;8.04;70.88;102552.69;10575223;28;20509;-73
2022/04/27 06:37:15;;;;;;;0.00;0.00;;;;;;;8.34;68.85;102557.94;10558424;28;20047;-74
2022/04/27 06:42:23;;;;;;;0.00;0.00;;;;;;;8.88;67.30;102559.56;10557008;28;20054;-74
2022/04/27 06:47:44;;;;;;;0.00;0.00;;;;;;;9.34;68.68;102565.63;10573362;28;20047;-74
2022/04/27 06:53:04;;;;;;;0.07;0.07;;;;;;;9.50;65.52;102572.53;10575808;28;20043;-74
2022/04/27 06:58:25;;;;;;;0.10;0.10;;;;;;;10.36;62.84;102570.34;10589014;27;20046;-74
2022/04/27 07:03:36;;;;;;;0.45;0.45;;;;;;;10.51;62.24;102585.78;10584086;28;20047;-74
2022/04/27 07:08:38;;;;;;;0.00;0.00;;;;;;;11.47;59.70;102570.00;10600579;28;20043;-74
2022/04/27 07:13:39;;;;;;;0.10;0.10;;;;;;;12.04;57.83;102573.63;10605537;28;20085;-74
2022/04/27 07:18:41;;;;;;;1.45;1.35;;;;;;;12.21;55.20;102586.44;10595723;27;20047;-74
2022/04/27 07:23:42;;;;;;;0.00;0.00;;;;;;;12.85;53.25;102584.97;10578305;28;20075;-75
2022/04/27 07:28:44;;;;;;;0.30;0.30;;;;;;;11.49;55.76;102589.91;10584220;28;20318;-79
2022/04/27 07:33:49;;;;;;;0.00;0.00;;;;;;;13.18;51.76;102585.53;10594407;27;20513;-78
2022/04/27 07:38:50;;;;;;;0.00;0.00;;;;;;;12.45;51.72;102594.44;10602325;27;20550;-79
2022/04/27 07:43:52;;;;;;;0.10;0.10;;;;;;;12.92;48.77;102592.19;10600349;27;20054;-79
2022/04/27 07:48:54;;;;;;;0.20;0.20;;;;;;;13.50;48.16;102598.09;10608707;27;20494;-78
2022/04/27 07:53:56;;;;;;;0.20;0.20;;;;;;;14.36;44.06;102604.88;10614052;27;20444;-80
2022/04/27 07:58:58;;;;;;;0.22;0.22;;;;;;;12.98;47.97;102610.56;10592198;27;20047;-79
2022/04/27 08:03:59;;;;;;;0.38;0.38;;;;;;;14.04;46.34;102604.50;10578763;28;20101;-79
2022/04/27 08:09:01;;;;;;;0.00;0.00;;;;;;;14.32;45.87;102615.97;10582803;28;20040;-79
2022/04/27 08:14:03;;;;;;;2.33;0.68;;;;;;;13.90;45.83;102615.22;10581308;28;20097;-77
2022/04/27 08:19:04;;;;;;;0.13;0.13;;;;;;;14.38;42.86;102623.97;10581087;28;20402;-79
2022/04/27 08:24:10;;;;;;;0.10;0.10;;;;;;;12.57;45.59;102632.88;10576984;28;20136;-74
2022/04/27 08:29:12;;;;;;;0.03;0.03;;;;;;;14.59;40.64;102639.44;10569477;28;20061;-74
2022/04/27 08:34:14;;;;;;;0.00;0.00;;;;;;;15.87;41.98;102624.81;10599026;27;20051;-76
2022/04/27 08:39:17;;;;;;;0.75;0.52;;;;;;;13.90;42.52;102630.75;10586877;28;20044;-74
2022/04/27 08:44:18;;;;;;;0.10;0.10;;;;;;;13.89;42.51;102635.91;10586674;28;20035;-74
2022/04/27 08:49:20;;;;;;;0.00;0.00;;;;;;;14.69;43.05;102635.50;10585119;28;20123;-74
2022/04/27 08:54:22;;;;;;;0.00;0.00;;;;;;;15.73;42.74;102626.94;10568292;28;20445;-74
2022/04/27 08:59:24;;;;;;;0.30;0.20;;;;;;;16.08;39.84;102624.59;10584375;28;20040;-74
2022/04/27 09:04:25;;;;;;;1.08;0.70;;;;;;;13.85;41.16;102637.47;10582588;28;20051;-75
2022/04/27 09:09:33;;;;;;;0.00;0.00;;;;;;;13.86;44.21;102636.66;10566374;28;20047;-76
2022/04/27 09:14:38;;;;;;;0.00;0.00;;;;;;;15.65;40.87;102634.47;10586134;28;20094;-76
2022/04/27 09:25:03;;;;;;;0.17;0.17;;;;;;;15.06;39.08;102635.09;10585168;28;20054;-76
2022/04/27 09:30:07;;;;;;;1.55;0.75;;;;;;;15.25;42.24;102637.44;10604179;27;20061;-75
2022/04/27 09:35:11;;;;;;;0.00;0.00;;;;;;;16.03;37.96;102639.19;10601925;27;20089;-76
2022/04/27 09:40:13;;;;;;;0.32;0.15;;;;;;;13.16;42.73;102640.63;10583331;27;20475;-76
2022/04/27 09:45:25;;;;;;;0.22;0.20;;;;;;;12.81;43.63;102640.84;10584001;28;20040;-75
2022/04/27 09:50:44;;;;;;;0.45;0.25;;;;;;;16.68;36.66;102643.69;10565393;28;20486;-76
2022/04/27 09:55:54;;;;;;;0.80;0.40;;;;;;;14.07;41.00;102656.47;10564846;28;20089;-75
2022/04/27 10:01:01;;;;;;;2.28;1.33;;;;;;;14.42;40.19;102646.56;10582301;28;20048;-76
2022/04/27 10:06:04;;;;;;;0.00;0.00;;;;;;;16.27;38.98;102640.78;10583434;28;20036;-76
2022/04/27 10:11:09;;;;;;;0.00;0.00;;;;;;;14.86;42.98;102646.50;10581836;28;20070;-76
2022/04/27 10:16:11;;;;;;;4.68;0.22;;;;;;;15.43;38.08;102642.38;10565336;28;20080;-76
2022/04/27 10:21:14;;;;;;;0.00;0.00;;;;;;;16.06;40.03;102639.25;10582957;28;20052;-75
2022/04/27 10:26:17;;;;;;;0.00;0.00;;;;;;;14.45;38.75;102641.53;10581724;28;20080;-75
2022/04/27 10:31:46;;;;;;;0.00;0.00;;;;;;;16.40;35.17;102627.28;10582445;28;20429;-77
2022/04/27 10:36:48;;;;;;;0.77;0.30;;;;;;;15.71;36.83;102628.59;10583759;28;20040;-77
2022/04/27 10:42:05;;;;;;;0.38;0.35;;;;;;;15.52;38.96;102628.03;10582292;28;20057;-77
2022/04/27 10:47:20;;;;;;;0.30;0.20;;;;;;;14.95;38.35;102632.97;10564204;28;20085;-76
2022/04/27 10:52:25;;;;;;;0.00;0.00;;;;;;;16.65;37.04;102622.75;10584847;27;20568;-76
2022/04/27 10:57:29;;;;;;;0.75;0.43;;;;;;;14.63;39.36;102630.06;10599583;27;20043;-76
2022/04/27 11:03:21;;;;;;;0.43;0.30;;;;;;;16.04;35.82;102627.94;10580821;28;20042;-76
2022/04/27 11:08:41;;;;;;;0.00;0.00;;;;;;;17.03;36.55;102620.38;10580005;28;20545;-76
2022/04/27 11:13:44;;;;;;;0.00;0.00;;;;;;;18.80;33.51;102612.22;10580952;28;20044;-75
2022/04/27 11:18:49;;;;;;;2.20;0.68;;;;;;;15.65;37.28;102623.22;10583482;28;20035;-77
2022/04/27 11:23:51;;;;;;;0.98;0.50;;;;;;;15.12;39.24;102618.88;10590333;28;20044;-76
2022/04/27 11:28:54;;;;;;;0.75;0.38;;;;;;;15.67;36.93;102622.44;10580774;28;20039;-77
2022/04/27 11:33:55;;;;;;;0.00;0.00;;;;;;;16.01;35.66;102625.25;10580896;28;20051;-77
2022/04/27 11:38:57;;;;;;;0.00;0.00;;;;;;;16.21;37.78;102615.44;10579864;28;20043;-75
2022/04/27 11:43:58;;;;;;;0.00;0.00;;;;;;;17.31;36.92;102609.78;10581236;28;20101;-77
2022/04/27 11:49:00;;;;;;;0.10;0.10;;;;;;;17.57;34.11;102611.28;10604777;28;20126;-77
2022/04/27 11:54:02;;;;;;;0.00;0.00;;;;;;;17.90;34.85;102604.25;10622471;27;20039;-77
2022/04/27 11:59:07;;;;;;;0.00;0.00;;;;;;;16.95;34.30;102601.06;10622916;28;20032;-76
2022/04/27 12:04:11;;;;;;;0.00;0.00;;;;;;;16.84;32.72;102602.47;10627883;27;20047;-77
2022/04/27 12:09:17;;;;;;;0.00;0.00;;;;;;;16.64;34.14;102600.22;10631133;27;20039;-76
2022/04/27 12:14:19;;;;;;;0.70;0.20;;;;;;;16.32;34.86;102600.16;10632228;27;20039;-76
2022/04/27 12:19:27;;;;;;;0.00;0.00;;;;;;;17.21;33.11;102598.25;10584004;28;20047;-77
2022/04/27 12:24:29;;;;;;;0.00;0.00;;;;;;;15.17;35.84;102599.13;10583262;28;20043;-76
2022/04/27 12:29:32;;;;;;;0.00;0.00;;;;;;;17.96;34.27;102590.50;10581725;28;20040;-76
2022/04/27 12:39:56;;;;;;;0.45;0.25;;;;;;;16.21;39.10;102592.06;10583147;28;20039;-76
2022/04/27 12:45:07;;;;;;;0.00;0.00;;;;;;;17.24;36.82;102585.28;10582793;28;20055;-76
2022/04/27 12:50:09;;;;;;;0.20;0.20;;;;;;;16.62;39.04;102578.47;10582314;28;20040;-76
2022/04/27 12:55:13;;;;;;;0.00;0.00;;;;;;;17.46;35.43;102585.84;10583394;28;20452;-76
2022/04/27 13:00:20;;;;;;;0.00;0.00;;;;;;;17.44;34.85;102586.69;10582814;28;20059;-77
2022/04/27 13:05:24;;;;;;;0.00;0.00;;;;;;;17.68;34.98;102575.09;10579847;28;20430;-76
2022/04/27 13:15:46;;;;;;;0.00;0.00;;;;;;;15.86;38.54;102579.75;10571169;28;20096;-76
2022/04/27 13:20:52;;;;;;;0.00;0.00;;;;;;;15.64;37.56;102574.69;10575792;28;20062;-76
2022/04/27 13:25:57;;;;;;;0.00;0.00;;;;;;;16.31;39.33;102561.97;10580649;28;20048;-76
2022/04/27 13:30:59;;;;;;;0.00;0.00;;;;;;;17.31;37.36;102558.59;10582404;28;20490;-76
2022/04/27 13:36:01;;;;;;;0.00;0.00;;;;;;;16.96;37.94;102556.84;10589449;27;20356;-76
2022/04/27 13:41:03;;;;;;;0.00;0.00;;;;;;;16.89;34.35;102548.78;10586775;27;20109;-77
2022/04/27 13:46:07;;;;;;;2.53;0.52;;;;;;;15.50;39.19;102556.03;10588619;27;20062;-77
2022/04/27 13:51:08;;;;;;;0.00;0.00;;;;;;;15.30;40.38;102552.81;10594973;27;20039;-76
2022/04/27 13:56:10;;;;;;;2.67;1.30;;;;;;;15.18;39.34;102551.56;10609883;27;20475;-76
2022/04/27 14:01:11;;;;;;;1.63;0.68;;;;;;;15.95;40.33;102540.16;10596270;27;20077;-75
2022/04/27 14:06:18;;;;;;;2.00;0.93;;;;;;;14.72;40.85;102550.91;10600794;27;20122;-74
2022/04/27 14:22:01;;;;;;;0.00;0.00;;;;;;;14.87;40.69;102547.94;10580945;28;20505;-76
2022/04/27 14:27:03;;;;;;;0.00;0.00;;;;;;;16.32;37.72;102527.34;10581614;28;20036;-75
2022/04/27 14:32:05;;;;;;;0.00;0.00;;;;;;;16.44;36.97;102521.59;10581441;28;20081;-75
2022/04/27 14:37:07;;;;;;;0.75;0.50;;;;;;;15.07;42.89;102529.59;10579191;28;20494;-75
2022/04/27 14:42:09;;;;;;;0.00;0.00;;;;;;;15.01;40.57;102525.06;10579220;28;20043;-75
2022/04/27 14:47:11;;;;;;;0.40;0.10;;;;;;;15.03;43.22;102535.47;10579190;28;20047;-75
2022/04/27 14:52:13;;;;;;;0.90;0.52;;;;;;;14.85;40.68;102541.84;10584466;28;20051;-77
2022/04/27 14:57:15;;;;;;;0.00;0.00;;;;;;;16.07;43.78;102529.22;10581378;28;20131;-76
2022/04/27 15:02:19;;;;;;;0.00;0.00;;;;;;;14.97;41.21;102533.56;10560623;28;20047;-76
2022/04/27 15:07:21;;;;;;;0.00;0.00;;;;;;;14.92;42.44;102535.13;10589193;27;20475;-76
2022/04/27 15:12:23;;;;;;;0.10;0.10;;;;;;;14.55;43.02;102534.72;10579683;28;20048;-76
2022/04/27 15:17:24;;;;;;;0.00;0.00;;;;;;;14.73;44.66;102531.00;10579409;28;20548;-76
2022/04/27 15:22:41;;;;;;;0.00;0.00;;;;;;;15.83;42.24;102527.66;10579339;28;20586;-75
2022/04/27 15:27:44;;;;;;;0.10;0.10;;;;;;;15.22;40.12;102530.09;10537220;28;20051;-75
2022/04/27 15:32:46;;;;;;;0.00;0.00;;;;;;;15.62;42.00;102525.28;10576415;28;20544;-75
2022/04/27 15:37:49;;;;;;;0.15;0.15;;;;;;;15.57;40.97;102520.75;10594493;27;20115;-76
2022/04/27 15:42:52;;;;;;;6.72;3.50;;;;;;;15.10;42.43;102524.47;10603564;27;20047;-76
2022/04/27 15:47:55;;;;;;;4.90;1.10;;;;;;;15.11;43.97;102528.84;10605337;27;20562;-75
2022/04/27 15:53:06;;;;;;;0.28;0.28;;;;;;;15.07;42.28;102534.78;10607045;27;20096;-76
2022/04/27 15:58:11;;;;;;;0.08;0.08;;;;;;;15.34;43.09;102523.50;10582534;27;20540;-76
2022/04/27 16:03:13;;;;;;;0.00;0.00;;;;;;;15.41;44.04;102538.47;10592396;27;20060;-76
2022/04/27 16:08:17;;;;;;;0.10;0.10;;;;;;;14.93;43.56;102546.41;10592276;27;20067;-77
2022/04/27 16:13:19;;;;;;;1.65;0.98;;;;;;;14.64;43.75;102539.34;10576110;27;20043;-78
2022/04/27 16:18:20;;;;;;;0.93;0.52;;;;;;;14.67;43.79;102552.44;10600684;27;20092;-76
2022/04/27 16:23:22;;;;;;;2.30;1.15;;;;;;;14.58;44.33;102546.91;10602927;27;20118;-76
2022/04/27 16:28:26;;;;;;;1.17;0.55;;;;;;;14.60;43.53;102543.53;10588860;27;20129;-77
2022/04/27 16:33:28;;;;;;;0.60;0.60;;;;;;;14.57;43.94;102547.72;10585811;28;20505;-76
2022/04/27 16:38:30;;;;;;;3.13;0.38;;;;;;;14.73;42.08;102555.25;10584407;28;20062;-76
2022/04/27 16:43:32;;;;;;;0.00;0.00;;;;;;;14.48;43.66;102553.47;10584593;28;20039;-81
2022/04/27 16:48:33;;;;;;;0.25;0.25;;;;;;;14.35;44.53;102564.19;10591353;28;20043;-80
2022/04/27 16:53:36;;;;;;;0.00;0.00;;;;;;;14.10;44.64;102556.41;10588189;27;20079;-80
2022/04/27 16:58:40;;;;;;;0.10;0.10;;;;;;;14.35;45.81;102561.59;10591757;28;20074;-80
2022/04/27 17:03:43;;;;;;;3.58;1.58;;;;;;;13.55;46.14;102567.22;10584720;28;20044;-80
2022/04/27 17:08:46;;;;;;;0.10;0.10;;;;;;;13.72;46.48;102568.75;10587768;28;20031;-80
2022/04/27 17:13:47;;;;;;;0.50;0.50;;;;;;;13.54;47.24;102563.72;10586155;28;20084;-79
2022/04/27 17:18:55;;;;;;;3.75;0.98;;;;;;;13.18;46.98;102566.53;10586131;28;20131;-80
2022/04/27 17:23:58;;;;;;;1.50;1.10;;;;;;;13.07;46.61;102571.25;10580074;28;20056;-78
2022/04/27 17:29:01;;;;;;;0.98;0.60;;;;;;;13.04;46.77;102578.00;10600158;27;20091;-76
2022/04/27 17:34:07;;;;;;;1.48;0.88;;;;;;;12.85;47.10;102579.78;10597684;27;20070;-76
2022/04/27 17:39:09;;;;;;;1.10;0.90;;;;;;;12.93;47.73;102583.59;10609140;27;20553;-76
2022/04/27 17:44:12;;;;;;;0.25;0.10;;;;;;;12.82;47.26;102597.78;10620416;27;20115;-76
2022/04/27 17:49:13;;;;;;;0.20;0.20;;;;;;;12.75;47.88;102594.03;10602300;27;20047;-76
2022/04/27 17:54:15;;;;;;;0.20;0.20;;;;;;;12.66;48.54;102599.69;10607212;27;20131;-76
2022/04/27 17:59:16;;;;;;;0.70;0.52;;;;;;;12.35;48.64;102608.63;10605895;27;20040;-76
2022/04/27 18:04:18;;;;;;;0.82;0.30;;;;;;;12.29;50.15;102613.53;10617639;27;20051;-75
2022/04/27 18:09:19;;;;;;;1.88;0.63;;;;;;;12.11;50.40;102617.81;10602668;27;20035;-76
2022/04/27 18:14:21;;;;;;;0.30;0.30;;;;;;;11.92;50.66;102619.53;10596565;27;20096;-76
2022/04/27 18:19:22;;;;;;;0.10;0.10;;;;;;;11.88;50.44;102628.81;10575714;28;20437;-77
2022/04/27 18:24:25;;;;;;;0.38;0.32;;;;;;;11.68;51.62;102633.00;10571933;28;20086;-76
2022/04/27 18:29:27;;;;;;;0.35;0.30;;;;;;;11.37;52.32;102641.81;10575629;28;20047;-76
2022/04/27 18:34:30;;;;;;;3.67;1.27;;;;;;;11.31;51.77;102641.50;10574876;28;20055;-76
2022/04/27 18:39:31;;;;;;;1.20;0.85;;;;;;;11.09;52.84;102650.72;10575473;28;20036;-76
2022/04/27 18:55:25;;;;;;;1.92;0.98;;;;;;;10.78;53.21;102680.03;10593555;27;20051;-74
2022/04/27 19:00:28;;;;;;;0.52;0.43;;;;;;;10.43;54.91;102686.75;10582472;27;20070;-77
2022/04/27 19:05:30;;;;;;;3.38;0.22;;;;;;;10.30;55.37;102686.84;10556661;28;20108;-77
2022/04/27 19:10:31;;;;;;;0.00;0.00;;;;;;;10.28;54.90;102685.88;10575338;28;20321;-77
2022/04/27 19:15:33;;;;;;;0.25;0.25;;;;;;;10.10;55.58;102702.06;10575209;28;20043;-77
2022/04/27 19:20:35;;;;;;;0.82;0.35;;;;;;;10.00;55.92;102700.66;10571075;28;20048;-76
2022/04/27 19:25:36;;;;;;;0.10;0.10;;;;;;;9.75;56.58;102700.06;10574823;28;20067;-76
2022/04/27 19:30:41;;;;;;;0.00;0.00;;;;;;;9.65;56.92;102699.50;10573825;28;20040;-76
2022/04/27 19:35:46;;;;;;;0.25;0.13;;;;;;;9.52;57.49;102705.59;10577775;28;20127;-76
2022/04/27 19:40:48;;;;;;;12.05;3.40;;;;;;;9.40;58.83;102712.63;10610125;28;20035;-77
2022/04/27 19:51:10;;;;;;;0.00;0.00;;;;;;;9.29;57.41;102716.19;10613089;28;20047;-76
2022/04/27 19:56:15;;;;;;;0.00;0.00;;;;;;;9.12;59.06;102722.91;10617175;27;20043;-76
2022/04/27 20:01:18;;;;;;;0.00;0.00;;;;;;;9.03;59.69;102721.53;10616591;28;20039;-76
2022/04/27 20:06:20;;;;;;;0.00;0.00;;;;;;;8.82;59.91;102723.69;10557563;28;20047;-76
2022/04/27 20:11:22;;;;;;;0.00;0.00;;;;;;;8.76;60.39;102733.56;10572680;28;20143;-77
2022/04/27 20:16:24;;;;;;;0.40;0.17;;;;;;;8.82;60.28;102733.97;10574127;28;20527;-77
2022/04/27 20:21:25;;;;;;;0.00;0.00;;;;;;;8.73;60.33;102739.41;10569547;28;20042;-76
2022/04/27 20:26:27;;;;;;;0.22;0.20;;;;;;;8.63;60.50;102741.31;10576121;28;20048;-77
2022/04/27 20:31:29;;;;;;;0.13;0.13;;;;;;;8.65;60.31;102748.31;10599031;27;20031;-77
2022/04/27 20:36:30;;;;;;;0.30;0.25;;;;;;;8.53;61.40;102750.09;10616781;27;20047;-76
2022/04/27 20:41:32;;;;;;;1.55;0.80;;;;;;;8.48;60.56;102757.50;10623165;27;20092;-76
2022/04/27 20:46:34;;;;;;;0.45;0.45;;;;;;;8.30;61.51;102756.31;10600620;27;20047;-76
2022/04/27 20:52:04;;;;;;;0.00;0.00;;;;;;;8.28;61.02;102757.88;10580258;28;20082;-76
2022/04/27 20:56:58;;;;;;;0.10;0.10;;;;;;;8.26;61.11;102756.09;10579746;28;20472;-77
2022/04/27 21:02:00;;;;;;;0.00;0.00;;;;;;;8.06;62.42;102753.91;10579685;28;20093;-76
2022/04/27 21:07:03;;;;;;;0.03;0.03;;;;;;;7.93;63.14;102759.91;10580459;28;20130;-76
2022/04/27 21:12:06;;;;;;;0.40;0.40;;;;;;;7.75;63.17;102762.13;10593577;27;20039;-76
2022/04/27 21:17:07;;;;;;;0.00;0.00;;;;;;;7.91;62.28;102772.63;10615911;27;20389;-76
2022/04/27 21:22:09;;;;;;;0.00;0.00;;;;;;;7.87;61.90;102773.19;10607008;27;20100;-76
2022/04/27 21:27:11;;;;;;;0.00;0.00;;;;;;;7.78;61.92;102775.16;10599683;27;20043;-77
2022/04/27 21:32:13;;;;;;;0.00;0.00;;;;;;;7.63;62.74;102785.28;10583555;27;20043;-77
2022/04/27 21:37:14;;;;;;;0.00;0.00;;;;;;;7.43;64.27;102789.03;10604906;27;20489;-78
2022/04/27 21:42:16;;;;;;;0.00;0.00;;;;;;;7.44;63.55;102798.50;10573015;28;20116;-77
2022/04/27 21:47:19;;;;;;;0.00;0.00;;;;;;;7.37;63.91;102797.16;10578803;28;20047;-77
2022/04/27 21:52:21;;;;;;;0.00;0.00;;;;;;;7.24;64.15;102795.47;10578711;28;20092;-79
2022/04/27 21:57:25;;;;;;;0.00;0.00;;;;;;;6.91;65.64;102802.53;10578987;28;20062;-78
2022/04/27 22:02:26;;;;;;;0.10;0.10;;;;;;;7.09;65.88;102804.63;10577368;28;20043;-79
2022/04/27 22:07:30;;;;;;;0.00;0.00;;;;;;;7.01;65.79;102824.56;10576883;28;20523;-79
2022/04/27 22:12:32;;;;;;;0.00;0.00;;;;;;;6.66;68.19;102818.69;10576494;28;20081;-79
2022/04/27 22:17:34;;;;;;;0.00;0.00;;;;;;;6.57;66.56;102823.16;10577556;28;20449;-80
2022/04/27 22:22:36;;;;;;;0.00;0.00;;;;;;;6.49;68.34;102829.38;10575344;28;20109;-78
2022/04/27 22:27:37;;;;;;;0.00;0.00;;;;;;;6.51;67.27;102818.47;10577782;28;20417;-78
2022/04/27 22:32:39;;;;;;;0.00;0.00;;;;;;;6.60;66.68;102828.47;10559059;28;20541;-77
2022/04/27 22:37:41;;;;;;;0.00;0.00;;;;;;;6.64;66.54;102835.63;10557968;28;20050;-77
2022/04/27 22:42:42;;;;;;;0.00;0.00;;;;;;;6.52;67.45;102842.41;10575255;28;20055;-78
2022/04/27 22:47:44;;;;;;;0.00;0.00;;;;;;;6.47;66.66;102848.84;10575039;28;20071;-77
2022/04/27 22:52:48;;;;;;;0.00;0.00;;;;;;;6.07;69.24;102853.56;10575563;28;20047;-77
2022/04/27 22:57:49;;;;;;;0.00;0.00;;;;;;;5.99;68.76;102856.44;10574909;28;20509;-78
2022/04/27 23:02:51;;;;;;;0.30;0.30;;;;;;;5.98;68.50;102864.84;10575567;28;20055;-78
2022/04/27 23:13:35;;;;;;;0.00;0.00;;;;;;;5.50;70.47;102863.75;10565763;28;20056;-79
2022/04/27 23:18:38;;;;;;;0.55;0.28;;;;;;;5.82;68.74;102869.56;10575865;28;20047;-78
2022/04/27 23:23:40;;;;;;;0.00;0.00;;;;;;;5.38;71.09;102871.34;10574711;28;20097;-78
2022/04/27 23:28:42;;;;;;;0.00;0.00;;;;;;;5.52;71.21;102864.72;10557286;28;20043;-78
2022/04/27 23:33:44;;;;;;;0.00;0.00;;;;;;;5.56;70.03;102863.31;10574463;28;20047;-79
2022/04/27 23:38:45;;;;;;;0.17;0.10;;;;;;;5.55;70.24;102866.63;10576937;28;20040;-79
2022/04/27 23:43:47;;;;;;;0.00;0.00;;;;;;;5.64;70.03;102869.91;10575799;28;20652;-79
2022/04/27 23:48:49;;;;;;;0.08;0.08;;;;;;;5.72;70.06;102867.97;10576888;28;20043;-79
2022/04/27 23:53:50;;;;;;;0.00;0.00;;;;;;;5.72;69.56;102863.72;10557716;28;20047;-78
2022/04/27 23:58:53;;;;;;;0.00;0.00;;;;;;;5.64;69.67;102876.72;10580713;28;20150;-79
